AirNav   Everest Fuels
 
 848 users online  

5PA5 Monongahela Valley Hospital Heliport
Monongahela, Pennsylvania, USA

GOING TO MONONGAHELA?


FAA INFORMATION EFFECTIVE 18 JUNE 2020

Location

FAA Identifier: 5PA5
Lat/Long: 40-10-56.2560N 079-54-36.1740W
40-10.937600N 079-54.602900W
40.1822933,-79.9100483
(estimated)
Elevation: 1114 ft. / 340 m (estimated)
Variation: 09W (2000)
From city: 2 miles SE of MONONGAHELA, PA
Time zone: UTC -4 (UTC -5 during Standard Time)
Zip code: 15063

Heliport Operations

Heliport use: Private use. Permission required prior to landing
Activation date: 08/1991
Control tower: no
ARTCC: CLEVELAND CENTER
FSS: ALTOONA FLIGHT SERVICE STATION
NOTAMs facility: FDC (NOTAM-D service not available)
Attendance: 
Wind indicator: lighted
Segmented circle: no
Lights: FOR PERIMETER LGTS CALL 724-258-1092.

Heliport Communications

PITTSBURGH APPROACH: 119.35
PITTSBURGH DEPARTURE: 119.35
BUVSE DP: 119.35
WX AWOS-3 at FWQ (4 nm NE): 118.475 (724-379-5815)
WX ASOS at AGC (10 nm N): 120.55 (412-466-8968)
WX AWOS-A at 42PN (17 nm N): PHONE 412-442-2213
WX AWOS-3PT at AFJ (18 nm W): 119.175 (724-228-3529)
WX AWOS-3 at VVS (18 nm SE): 133.325 (724-626-8745)

Nearby radio navigation aids

VOR radial/distance  VOR name  Freq  Var
AGCr143/8.3ALLEGHENY VOR/DME110.0009W
IHDr302/28.2INDIAN HEAD VORTAC108.2006W
HLGr106/30.5WHEELING VOR/DME112.2007W
MGWr002/37.6MORGANTOWN VOR/DME111.6005W

Heliport Services

Runway Information

Helipad H1

Dimensions: 65 x 62 ft. / 20 x 19 m
Surface: asphalt, in fair condition
Runway edge lights: PERI
Operational restrictions: APPROVED APCH/DEP ROUTES: 270 DEGREES APCH/090 DEGREES DEP; 360DEGREES APCH/180 DEGREES DEP.
Latitude: 40-10.937600N
Longitude: 079-54.602900W
Elevation: 1114.0 ft.
Traffic pattern: leftleft

Heliport Ownership and Management from official FAA records

Ownership: Privately-owned
Owner: MONONGAHELA VALLEY HOSPITAL
1163 COUNTRY CLUB RD
MONONGAHELA, PA 15063
Phone 724-258-1000
Manager: PATRICK J. ALBERTS, SR VP / COO
1163 COUNTRY CLUB RD
MONONGAHELA, PA 15063
Phone 724-258-1000

Additional Remarks

FOR CD CTC PITTSBURGH APCH AT 412-472-5591

Instrument Procedures

There are no published instrument procedures at 5PA5.

Some nearby airports with instrument procedures:

KFWQ - Rostraver Airport (4 nm NE)
G05 - Finleyville Airpark (6 nm NW)
KAGC - Allegheny County Airport (10 nm N)
KAFJ - Washington County Airport (18 nm W)
KVVS - Joseph A Hardy Connellsville Airport (18 nm SE)
KWAY - Greene County Airport (20 nm SW)
 
Loc | Ops | Rwys | IFR | FBO | Links
Com | Nav | Svcs | Stats | Notes
Area around 5PA5 (Monongahela Valley Hospital Heliport)
 
Road maps at: MapQuest Bing Google
 
Aerial photo
No photo
 
Sectional chart

 
Airport distance calculator
Flying to Monongahela Valley Hospital Heliport? Find the distance to fly.

From to 5PA5

Sunrise and sunset
Times for 14-Jul-2020
 Local
(UTC-4)
 Zulu
(UTC)
Morning civil twilight05:3209:32
Sunrise06:0410:04
Sunset20:4700:47
Evening civil twilight21:1901:19

Current date and time
Zulu (UTC)  15-Jul-2020 03:13:19
Local (UTC-4)  14-Jul-2020 23:13:19
 
METAR
KP53 
4nm NE 
150256Z AUTO 20007G16KT 19/17 A2991 RMK AO1 SLP126 P0001 60019 T01940167 55001
KAGC 
10nm N 
150253Z 00000KT 10SM BKN060 23/14 A3012 RMK AO2 SLP196 T02280139 53007
KAFJ 
17nm W 
150256Z AUTO 00000KT 10SM CLR 18/16 A3015 RMK AO2 SLP203 T01780161 53005
TAF
KAGC 
10nm N 
141720Z 1418/1518 33004KT P6SM SCT040 FM142200 00000KT P6SM SKC
NOTAMs
Click for the latest NOTAMs
NOTAMs are issued by the DoD/FAA and will open in a separate window not controlled by AirNav.

 

 
 

Would you like to see your business listed on this page?

 If your business provides an interesting product or service to pilots, flight crews, aircraft, or users of the Monongahela Valley Hospital Heliport, you should consider listing it here.  To start the listing process, click on the button below
 
Add a business
 

Other Pages about Monongahela Valley Hospital Heliport

Update a link
 
Copyright © AirNav, LLC. All rights reserved. Privacy Policy  Contact